createdAt,value
2022-12-19T00:04:37.059Z,68.48
2022-12-19T00:09:38.616Z,68.19
2022-12-19T00:14:40.146Z,67.56
2022-12-19T00:19:41.737Z,68.22
2022-12-19T00:24:43.630Z,68.58
2022-12-19T00:29:45.041Z,67.74
2022-12-19T00:34:46.844Z,67.92
2022-12-19T00:39:48.450Z,67.91
2022-12-19T00:44:50.152Z,68.51
2022-12-19T00:49:51.570Z,68.96
2022-12-19T00:54:53.980Z,68.64
2022-12-19T00:59:55.656Z,68.66
2022-12-19T01:04:57.066Z,68.22
2022-12-19T01:09:58.490Z,68.79
2022-12-19T01:15:04.623Z,68.55
2022-12-19T01:20:07.118Z,68.02
2022-12-19T01:25:08.759Z,67.63
2022-12-19T01:30:10.838Z,68.03
2022-12-19T01:35:21.378Z,67.89
2022-12-19T01:40:24.078Z,68.00
2022-12-19T01:45:34.994Z,67.64
2022-12-19T01:51:01.412Z,68.09
2022-12-19T01:56:09.354Z,68.77
2022-12-19T02:01:10.813Z,69.44
2022-12-19T02:06:13.460Z,70.41
2022-12-19T02:11:15.385Z,71.37
2022-12-19T02:16:38.484Z,71.81
2022-12-19T02:22:06.047Z,72.56
2022-12-19T02:27:24.132Z,72.26
2022-12-19T02:32:42.723Z,72.98
2022-12-19T02:38:06.862Z,73.48
2022-12-19T02:43:14.945Z,73.26
2022-12-19T02:48:19.453Z,73.16
2022-12-19T02:53:24.061Z,73.01
2022-12-19T02:58:28.331Z,72.96
2022-12-19T03:03:52.036Z,73.11
2022-12-19T03:09:11.378Z,72.78
2022-12-19T03:14:18.458Z,73.66
2022-12-19T03:19:19.977Z,73.92
2022-12-19T03:24:21.693Z,73.88
2022-12-19T03:29:42.849Z,73.72
2022-12-19T03:34:57.990Z,73.51
2022-12-19T03:40:07.194Z,73.49
2022-12-19T03:45:10.757Z,74.04
2022-12-19T03:50:12.343Z,73.85
2022-12-19T03:55:21.503Z,73.95
2022-12-19T04:00:25.337Z,73.81
2022-12-19T04:05:28.927Z,73.96
2022-12-19T04:10:32.478Z,73.41
2022-12-19T04:15:49.690Z,73.30
2022-12-19T04:20:58.020Z,73.40
2022-12-19T04:26:03.267Z,73.97
2022-12-19T04:31:06.745Z,73.75
2022-12-19T04:36:10.419Z,74.38
2022-12-19T04:41:12.582Z,74.42
2022-12-19T04:46:14.062Z,74.60
2022-12-19T04:51:16.091Z,75.22
2022-12-19T04:56:17.642Z,74.95
2022-12-19T05:01:19.055Z,75.47
2022-12-19T05:06:20.653Z,75.48
2022-12-19T05:11:23.220Z,75.03
2022-12-19T05:16:24.905Z,74.58
2022-12-19T05:21:26.430Z,75.36
2022-12-19T05:26:28.273Z,75.52
2022-12-19T05:31:30.001Z,75.33
2022-12-19T05:36:32.719Z,75.80
2022-12-19T05:41:34.450Z,76.54
2022-12-19T05:46:36.098Z,76.42
2022-12-19T05:51:37.625Z,76.68
2022-12-19T05:56:39.184Z,76.26
2022-12-19T06:01:40.813Z,76.50
2022-12-19T06:06:42.534Z,76.57
2022-12-19T06:11:43.959Z,76.08
2022-12-19T06:16:45.327Z,76.45
2022-12-19T06:21:48.529Z,76.36
2022-12-19T06:26:50.287Z,75.86
2022-12-19T06:31:51.664Z,75.65
2022-12-19T06:36:53.039Z,75.51
2022-12-19T06:42:13.818Z,76.64
2022-12-19T06:47:20.101Z,76.43
2022-12-19T06:52:22.334Z,76.82
2022-12-19T06:57:23.778Z,76.79
2022-12-19T07:02:30.447Z,77.18
2022-12-19T07:07:33.040Z,76.74
2022-12-19T07:12:35.474Z,76.38
2022-12-19T07:17:37.815Z,77.39
2022-12-19T07:22:39.856Z,78.16
2022-12-19T07:27:41.330Z,76.95
2022-12-19T07:32:42.969Z,76.96
2022-12-19T07:37:44.644Z,76.79
2022-12-19T07:42:46.078Z,76.39
2022-12-19T07:47:47.976Z,76.48
2022-12-19T07:52:49.486Z,76.74
2022-12-19T07:57:50.825Z,76.71
2022-12-19T08:02:52.355Z,76.77
2022-12-19T08:07:54.645Z,76.94
2022-12-19T08:12:56.063Z,76.84
2022-12-19T08:17:57.491Z,76.94
2022-12-19T08:22:58.873Z,76.59
2022-12-19T08:28:00.338Z,76.75
2022-12-19T08:33:02.288Z,75.97
2022-12-19T08:38:03.774Z,76.25
2022-12-19T08:43:05.338Z,76.49
2022-12-19T08:48:07.663Z,76.66
2022-12-19T08:53:09.154Z,76.22
2022-12-19T08:58:10.505Z,76.05
2022-12-19T09:03:12.223Z,76.74
2022-12-19T09:08:14.817Z,76.69
2022-12-19T09:13:16.544Z,76.52
2022-12-19T09:18:19.068Z,76.51
2022-12-19T09:23:28.893Z,76.41
2022-12-19T09:28:30.669Z,77.09
2022-12-19T09:33:41.209Z,77.13
2022-12-19T09:38:45.541Z,76.88
2022-12-19T09:44:04.989Z,76.85
2022-12-19T09:49:13.457Z,76.61
2022-12-19T09:54:28.420Z,76.59
2022-12-19T09:59:41.248Z,75.98
2022-12-19T10:04:52.755Z,76.64
2022-12-19T10:12:36.266Z,77.17
2022-12-19T10:16:00.584Z,77.74
2022-12-19T10:21:59.040Z,77.53
2022-12-19T10:26:57.915Z,77.49
2022-12-19T10:32:19.985Z,78.42
2022-12-19T10:37:31.450Z,78.05
2022-12-19T10:42:41.799Z,78.38
2022-12-19T10:47:43.253Z,78.35
2022-12-19T10:52:47.424Z,78.92
2022-12-19T10:57:49.019Z,79.46
2022-12-19T11:03:04.656Z,79.09
2022-12-19T11:08:06.211Z,78.05
2022-12-19T11:19:21.212Z,78.43
2022-12-19T11:29:15.712Z,78.33
2022-12-19T11:30:48.176Z,78.84
2022-12-19T11:35:37.140Z,79.03
2022-12-19T11:40:49.545Z,78.64
2022-12-19T11:46:09.154Z,78.94
2022-12-19T11:51:40.213Z,79.54
2022-12-19T11:56:42.071Z,79.65
2022-12-19T12:02:01.186Z,79.83
2022-12-19T12:07:08.434Z,79.30
2022-12-19T12:19:48.626Z,79.44
2022-12-19T12:22:47.397Z,79.64
2022-12-19T12:31:53.736Z,80.40
2022-12-19T12:31:57.402Z,80.86
2022-12-19T12:41:19.469Z,80.96
2022-12-19T12:46:26.271Z,81.64
2022-12-19T12:51:28.873Z,81.28
2022-12-19T12:56:31.877Z,81.13
2022-12-19T13:01:35.231Z,81.34
2022-12-19T13:06:43.362Z,82.18
2022-12-19T13:12:14.202Z,81.24
2022-12-19T13:17:44.037Z,81.44
2022-12-19T13:23:20.891Z,81.49
2022-12-19T13:28:24.592Z,81.72
2022-12-19T13:33:45.926Z,81.66
2022-12-19T13:39:54.031Z,81.55
2022-12-19T13:44:12.719Z,81.68
2022-12-19T13:49:17.486Z,82.11
2022-12-19T13:54:32.863Z,82.63
2022-12-19T13:59:38.384Z,82.66
2022-12-19T14:04:41.108Z,82.97
2022-12-19T14:11:28.391Z,82.92
2022-12-19T14:15:28.937Z,83.43
2022-12-19T14:22:09.531Z,83.47
2022-12-19T14:28:21.001Z,83.48
2022-12-19T14:31:19.192Z,83.36
2022-12-19T14:36:27.134Z,83.34
2022-12-19T14:41:47.635Z,83.74
2022-12-19T14:53:52.151Z,83.90
2022-12-19T14:54:46.942Z,83.09
2022-12-19T14:58:54.064Z,83.81
2022-12-19T15:04:49.200Z,84.33
2022-12-19T15:11:01.040Z,83.74
2022-12-19T15:14:54.530Z,83.83
2022-12-19T15:20:00.114Z,83.50
2022-12-19T15:25:01.898Z,83.31
2022-12-19T15:30:03.686Z,83.96
2022-12-19T15:35:11.806Z,84.09
2022-12-19T15:40:16.542Z,83.51
2022-12-19T15:45:21.492Z,84.33
2022-12-19T15:50:26.673Z,84.40
2022-12-19T15:55:30.033Z,84.01
2022-12-19T16:00:36.928Z,84.29
2022-12-19T16:05:38.489Z,84.34
2022-12-19T16:10:41.215Z,84.43
2022-12-19T16:15:42.808Z,83.98
2022-12-19T16:20:44.351Z,84.57
2022-12-19T16:25:51.474Z,84.17
2022-12-19T16:30:55.223Z,84.21
2022-12-19T16:36:06.669Z,84.30
2022-12-19T16:41:16.782Z,84.39
2022-12-19T16:46:23.820Z,84.28
2022-12-19T16:51:27.709Z,84.37
2022-12-19T16:56:41.471Z,84.17
2022-12-19T17:01:45.162Z,84.07
2022-12-19T17:06:47.456Z,83.95
2022-12-19T17:11:55.909Z,84.19
2022-12-19T17:16:59.216Z,84.25
2022-12-19T17:22:00.694Z,84.09
2022-12-19T17:27:02.191Z,84.54
2022-12-19T17:32:04.393Z,84.21
2022-12-19T17:37:06.183Z,84.27
2022-12-19T17:42:21.731Z,84.28
2022-12-19T17:47:23.591Z,84.37
2022-12-19T17:52:24.985Z,84.36
2022-12-19T17:57:26.889Z,84.29
2022-12-19T18:02:28.938Z,84.46
2022-12-19T18:07:30.419Z,84.34
2022-12-19T18:12:31.805Z,84.75
2022-12-19T18:17:33.750Z,84.37
2022-12-19T18:22:36.054Z,84.64
2022-12-19T18:27:37.575Z,84.60
2022-12-19T18:32:38.954Z,84.61
2022-12-19T18:37:40.413Z,85.15
2022-12-19T18:42:42.796Z,84.71
2022-12-19T18:47:51.322Z,84.23
2022-12-19T18:52:54.293Z,84.67
2022-12-19T18:57:55.874Z,84.55
2022-12-19T19:03:01.340Z,84.14
2022-12-19T19:08:21.509Z,84.30
2022-12-19T19:13:26.844Z,84.05
2022-12-19T19:18:35.304Z,83.87
2022-12-19T19:23:44.719Z,84.10
2022-12-19T19:28:52.018Z,83.79
2022-12-19T19:34:00.713Z,83.54
2022-12-19T19:39:04.487Z,83.41
2022-12-19T19:44:08.527Z,83.52
2022-12-19T19:49:11.094Z,83.27
2022-12-19T19:54:12.667Z,83.46
2022-12-19T19:59:15.820Z,83.78
2022-12-19T20:04:17.268Z,83.73
2022-12-19T20:09:19.207Z,83.79
2022-12-19T20:14:21.299Z,84.27
2022-12-19T20:19:22.744Z,83.56
2022-12-19T20:24:24.877Z,83.95
2022-12-19T20:29:27.182Z,83.59
2022-12-19T20:34:30.147Z,83.57
2022-12-19T20:39:34.088Z,83.65
2022-12-19T20:44:35.545Z,83.82
2022-12-19T20:49:37.108Z,83.79
2022-12-19T20:54:38.497Z,84.03
2022-12-19T20:59:41.146Z,83.81
2022-12-19T21:04:42.574Z,83.55
2022-12-19T21:09:50.176Z,83.33
2022-12-19T21:14:51.560Z,83.73
2022-12-19T21:19:53.076Z,83.40
2022-12-19T21:24:54.446Z,83.57
2022-12-19T21:29:56.044Z,83.89
2022-12-19T21:34:57.464Z,83.92
2022-12-19T21:39:58.967Z,83.51
2022-12-19T21:45:00.595Z,83.81
2022-12-19T21:50:01.993Z,83.85
2022-12-19T21:55:04.892Z,84.13
2022-12-19T22:00:09.523Z,84.31
2022-12-19T22:05:11.149Z,83.94
2022-12-19T22:10:12.545Z,83.98
2022-12-19T22:15:13.989Z,83.74
2022-12-19T22:20:15.580Z,83.87
2022-12-19T22:25:17.606Z,83.97
2022-12-19T22:30:19.203Z,84.01
2022-12-19T22:35:20.718Z,83.62
2022-12-19T22:40:22.392Z,82.76
2022-12-19T22:45:23.845Z,82.84
2022-12-19T22:50:25.215Z,83.14
2022-12-19T22:55:27.601Z,83.34
2022-12-19T23:00:29.002Z,83.12
2022-12-19T23:05:31.767Z,83.22
2022-12-19T23:10:33.617Z,82.67
2022-12-19T23:15:35.479Z,82.75
2022-12-19T23:20:37.266Z,82.69
2022-12-19T23:25:40.077Z,82.79
2022-12-19T23:30:41.487Z,82.57
2022-12-19T23:35:43.332Z,82.60
2022-12-19T23:40:44.950Z,82.78
2022-12-19T23:45:46.646Z,83.20
2022-12-19T23:50:57.192Z,83.30
2022-12-19T23:55:59.244Z,83.96
